Nearby METAR Reports

 

KRYN - Tucson/Ryan Fld, Arizona, USA
Distance from station: SSW 16mi, 26km
Updated: Fri, 24-Jun-2022 2:45pm MST
NOT Current
Clear
Clear
 Wind from WSW
Wind: WSW 7 mph , 11 km/h
Temperature: 100°F , 38°C
Dew Point: 46°F , 8°C
Humidity: 16%
Barometer: 29.85 inHg , 1010.8 hPa
Clouds: Clear
Visibility: 10 miles , 16 km
2022/06/24 21:45 KRYN 242145Z 24006KT 10SM CLR 38/08 A2985
KTUS - Tucson, Arizona, USA
Distance from station: SSE 18mi, 28km
Updated: Fri, 24-Jun-2022 3:53pm MST
Few Clouds
Few Clouds
 Wind from NNW
Wind: NNW 6 mph , 9 km/h, Gust: 18 mph , 30 km/h
Temperature: 100°F , 38°C
Dew Point: 52°F , 11°C
Humidity: 20%
Barometer: 29.87 inHg , 1011.5 hPa
Clouds: Few Clouds
Visibility: 10 miles , 16 km
Cloud details: Few Clouds 10000 ft
2022/06/24 22:53 KTUS 242253Z 33005G16KT 10SM FEW100 38/11 A2987 RMK AO2 SLP059 T03780111
 
KDMA - Davis/Tucson, Arizona, USA
Distance from station: SE 18mi, 29km
Updated: Fri, 24-Jun-2022 3:58pm MST
Clear
Clear
 Wind from N
Wind: N 5 mph , 7 km/h
Temperature: 99°F , 37°C
Dew Point: 50°F , 10°C
Humidity: 19%
Barometer: 29.83 inHg , 1010.2 hPa
Clouds: Clear
Visibility: 10 miles , 16 km
2022/06/24 22:58 KDMA 242258Z AUTO 35004KT 10SM CLR 37/10 A2983 RMK AO2 SLP053 T03700103 $
KCGZ - Casa Granda, Arizona, USA
Distance from station: NW 57mi, 92km
Updated: Fri, 24-Jun-2022 3:56pm MST
Clear
Clear
 Wind from WNW
Wind: WNW 9 mph , 15 km/h
Temperature: 102°F , 39°C
Dew Point: 54°F , 12°C
Humidity: 20%
Barometer: 29.79 inHg , 1008.8 hPa
Clouds: Clear
Visibility: 10 miles , 16 km
2022/06/24 22:56 KCGZ 242256Z AUTO 30008KT 10SM CLR 39/12 A2979 RMK AO2 SLP069 T03890122 $
 
KALK - Pioneer Airfield, Arizona, USA
Distance from station: SE 65mi, 104km
Updated: Fri, 24-Jun-2022 3:56pm MST
Few Clouds
Few Clouds
 Wind from N
Wind: N 3 mph , 6 km/h
Temperature: 88°F , 31°C
Dew Point: 46°F , 8°C
Humidity: 24%
Barometer: 30.04 inHg , 1017.3 hPa
Clouds: Few Clouds
Visibility: 10 miles , 16 km
Cloud details: Few Clouds 9000 ft
2022/06/24 22:56 KALK 242256Z AUTO 36003KT 10SM FEW090 31/08 A3004 RMK AO2 SLP075 T03110078
KOLS - Nogales, Arizona, USA
Distance from station: S 67mi, 108km
Updated: Fri, 24-Jun-2022 4:24pm MST
Nearby thunderstorm, Partly cloudy
Nearby thunderstorm, Partly cloudy
 Wind from E
Wind: E 13 mph , 20 km/h, Gust: 22 mph , 35 km/h
Temperature: 91°F , 33°C
Dew Point: 46°F , 8°C
Humidity: 21%
Barometer: 29.96 inHg , 1014.6 hPa
Summary: Nearby Thunderstorm
Clouds: Partly cloudy
Visibility: 10 miles , 16 km
Cloud details: Partly cloudy 10000 ft
2022/06/24 23:24 KOLS 242324Z AUTO 10011G19KT 10SM VCTS SCT100 33/08 A2996 RMK AO2 PK WND 08026/2302 LTG DSNT E AND SE T03280083
 
KFHU - Fort Huachuca, Arizona, USA
Distance from station: SE 69mi, 110km
Updated: Fri, 24-Jun-2022 3:58pm MST
Nearby showers, Mostly cloudy
Nearby showers, Mostly cloudy
 Wind from ENE
Wind: ENE 6 mph , 9 km/h
Temperature: 88°F , 31°C
Dew Point: 48°F , 9°C
Humidity: 25%
Barometer: 30.04 inHg , 1017.3 hPa
Summary: Nearby Showers
Clouds: Mostly cloudy
Visibility: 10 miles , 16 km
Cloud details: Partly cloudy 9000 ft
Mostly cloudy 12000 ft
Mostly cloudy 20000 ft
2022/06/24 22:58 KFHU 242258Z 07005KT 10SM VCSH SCT090 BKN120 BKN200 31/09 A3004 RMK AO2A LTG DSNT SW SLP096 SH S T03110087
KIWA - Chandler/Mesa, Arizona, USA
Distance from station: NNW 73mi, 117km
Updated: Fri, 24-Jun-2022 3:47pm MST
Clear
Clear
 Wind from WNW
Wind: WNW 9 mph , 15 km/h
Temperature: 104°F , 40°C
Dew Point: 52°F , 11°C
Humidity: 17%
Barometer: 29.79 inHg , 1008.8 hPa
Clouds: Clear
Visibility: 10 miles , 16 km
2022/06/24 22:47 KIWA 242247Z 29008KT 10SM CLR 40/11 A2979